Time;durP1;ratioP1;P1;durP2;ratioP2;P2;SDS_P1;SDS_P2;PMS_P1;PMS_P2;Temp;Humidity;BMP_temperature;BMP_pressure;BME280_temperature;BME280_humidity;BME280_pressure;Samples;Min_cycle;Max_cycle;Signal;HPM_P1;HPM_P2
2021/09/15 00:02:09;;;;;;;3.72;3.15;;;;;;;;;;5068934;28;20032;-60
2021/09/15 00:04:34;;;;;;;3.47;2.90;;;;;;;;;;5068531;28;20123;-60
2021/09/15 00:06:59;;;;;;;4.85;3.45;;;;;;;;;;5068912;28;20048;-59
2021/09/15 00:09:25;;;;;;;4.95;3.50;;;;;;;;;;5068126;28;20040;-60
2021/09/15 00:11:50;;;;;;;4.28;3.05;;;;;;;;;;5068923;28;20111;-59
2021/09/15 00:14:16;;;;;;;3.83;3.35;;;;;;;;;;5068523;28;20032;-60
2021/09/15 00:16:41;;;;;;;7.70;3.47;;;;;;;;;;5068091;28;20036;-60
2021/09/15 00:19:07;;;;;;;3.10;2.53;;;;;;;;;;5062066;28;20449;-60
2021/09/15 00:21:33;;;;;;;5.88;4.03;;;;;;;;;;5068066;28;20032;-60
2021/09/15 00:23:59;;;;;;;4.22;2.75;;;;;;;;;;5067839;28;20025;-60
2021/09/15 00:26:24;;;;;;;3.50;2.80;;;;;;;;;;5068829;28;20032;-59
2021/09/15 00:28:49;;;;;;;3.38;2.88;;;;;;;;;;5068689;28;20033;-60
2021/09/15 00:31:15;;;;;;;5.07;2.95;;;;;;;;;;5068356;28;20084;-60
2021/09/15 00:33:41;;;;;;;3.42;2.95;;;;;;;;;;5067723;28;20074;-60
2021/09/15 00:36:07;;;;;;;2.83;2.33;;;;;;;;;;5066638;28;20032;-60
2021/09/15 00:38:32;;;;;;;3.88;3.05;;;;;;;;;;5067574;28;20024;-59
2021/09/15 00:40:58;;;;;;;7.65;2.65;;;;;;;;;;5067495;28;20073;-60
2021/09/15 00:43:23;;;;;;;4.20;3.58;;;;;;;;;;5067640;28;20040;-60
2021/09/15 00:45:49;;;;;;;4.35;3.38;;;;;;;;;;5067664;28;20032;-60
2021/09/15 00:48:15;;;;;;;4.97;3.15;;;;;;;;;;5068451;28;20430;-59
2021/09/15 00:50:40;;;;;;;4.50;2.72;;;;;;;;;;5066581;28;20484;-60
2021/09/15 00:53:08;;;;;;;4.03;3.28;;;;;;;;;;5070333;28;20025;-60
2021/09/15 00:55:33;;;;;;;4.63;3.92;;;;;;;;;;5071488;28;20028;-60
2021/09/15 00:57:59;;;;;;;4.13;3.58;;;;;;;;;;5069592;28;20347;-60
2021/09/15 01:00:24;;;;;;;4.38;3.30;;;;;;;;;;5069157;28;20052;-60
2021/09/15 01:02:49;;;;;;;7.55;3.70;;;;;;;;;;5070584;28;20108;-60
2021/09/15 01:05:15;;;;;;;3.28;2.70;;;;;;;;;;5070862;28;20516;-59
2021/09/15 01:07:41;;;;;;;3.60;3.15;;;;;;;;;;5070521;28;20064;-60
2021/09/15 01:10:07;;;;;;;3.63;2.88;;;;;;;;;;5070784;28;20032;-60
2021/09/15 01:12:33;;;;;;;4.72;3.17;;;;;;;;;;5069969;28;20064;-60
2021/09/15 01:14:59;;;;;;;4.03;3.00;;;;;;;;;;5070780;28;20037;-60
2021/09/15 01:17:25;;;;;;;3.00;2.60;;;;;;;;;;5071717;28;20339;-60
2021/09/15 01:19:50;;;;;;;3.30;2.60;;;;;;;;;;5071115;28;20036;-60
2021/09/15 01:22:15;;;;;;;3.85;2.97;;;;;;;;;;5070501;28;20039;-59
2021/09/15 01:24:41;;;;;;;5.68;3.53;;;;;;;;;;5070205;28;20040;-60
2021/09/15 01:27:06;;;;;;;8.48;3.15;;;;;;;;;;5071430;28;20028;-60
2021/09/15 01:29:33;;;;;;;3.38;2.63;;;;;;;;;;5070409;28;20036;-60
2021/09/15 01:32:08;;;;;;;3.35;2.50;;;;;;;;;;5067397;28;20182;-60
2021/09/15 01:34:36;;;;;;;3.65;2.80;;;;;;;;;;5070396;28;20047;-60
2021/09/15 01:37:03;;;;;;;4.18;3.60;;;;;;;;;;5070448;28;20036;-60
2021/09/15 01:39:29;;;;;;;3.72;3.13;;;;;;;;;;5070461;28;20037;-60
2021/09/15 01:42:02;;;;;;;4.10;3.10;;;;;;;;;;5069690;28;20036;-59
2021/09/15 01:44:45;;;;;;;3.75;2.83;;;;;;;;;;5070189;28;20024;-59
2021/09/15 01:47:12;;;;;;;4.55;3.17;;;;;;;;;;5071224;28;20032;-59
2021/09/15 01:49:39;;;;;;;3.63;2.63;;;;;;;;;;5070810;28;20035;-59
2021/09/15 01:52:06;;;;;;;3.35;2.95;;;;;;;;;;5070346;28;20115;-59
2021/09/15 01:54:33;;;;;;;5.85;3.28;;;;;;;;;;5070872;28;20040;-59
2021/09/15 01:56:59;;;;;;;6.00;3.10;;;;;;;;;;5070461;28;20128;-60
2021/09/15 01:59:25;;;;;;;3.80;3.03;;;;;;;;;;5068830;28;20079;-59
2021/09/15 02:01:50;;;;;;;5.63;3.50;;;;;;;;;;5064409;28;20703;-59
2021/09/15 02:04:16;;;;;;;3.85;3.25;;;;;;;;;;5067279;28;20036;-59
2021/09/15 02:06:41;;;;;;;3.97;3.08;;;;;;;;;;5068796;28;20044;-59
2021/09/15 02:09:07;;;;;;;3.97;3.03;;;;;;;;;;5068062;28;20040;-58
2021/09/15 02:11:34;;;;;;;4.50;3.17;;;;;;;;;;5066484;28;20599;-58
2021/09/15 02:13:59;;;;;;;4.78;3.38;;;;;;;;;;5068852;28;20028;-58
2021/09/15 02:16:25;;;;;;;4.45;2.90;;;;;;;;;;5069229;28;20472;-58
2021/09/15 02:18:51;;;;;;;4.05;3.30;;;;;;;;;;5068264;28;20059;-58
2021/09/15 02:21:17;;;;;;;4.10;2.72;;;;;;;;;;5063829;28;20052;-58
2021/09/15 02:23:43;;;;;;;4.50;2.88;;;;;;;;;;5066234;28;20040;-58
2021/09/15 02:26:08;;;;;;;3.90;3.20;;;;;;;;;;5069774;28;20369;-58
2021/09/15 02:28:34;;;;;;;3.38;2.85;;;;;;;;;;5068821;28;20101;-58
2021/09/15 02:30:59;;;;;;;4.00;3.33;;;;;;;;;;5067238;28;20342;-58
2021/09/15 02:33:24;;;;;;;3.28;2.90;;;;;;;;;;5068844;28;20342;-58
2021/09/15 02:35:50;;;;;;;3.15;2.63;;;;;;;;;;5068683;28;20028;-58
2021/09/15 02:38:15;;;;;;;4.18;3.33;;;;;;;;;;5064666;28;20045;-58
2021/09/15 02:40:41;;;;;;;4.00;2.95;;;;;;;;;;5067411;28;20060;-58
2021/09/15 02:43:07;;;;;;;3.90;2.92;;;;;;;;;;5067969;28;20040;-58
2021/09/15 02:45:32;;;;;;;4.72;3.30;;;;;;;;;;5068290;28;20116;-58
2021/09/15 02:47:57;;;;;;;3.50;2.80;;;;;;;;;;5069691;28;20029;-58
2021/09/15 02:50:23;;;;;;;3.22;2.55;;;;;;;;;;5069139;28;20093;-58
2021/09/15 02:52:48;;;;;;;4.35;3.13;;;;;;;;;;5068700;28;20084;-58
2021/09/15 02:55:14;;;;;;;3.58;2.92;;;;;;;;;;5068944;28;20028;-59
2021/09/15 02:57:39;;;;;;;4.07;3.00;;;;;;;;;;5068891;28;20069;-59
2021/09/15 03:00:06;;;;;;;5.55;3.13;;;;;;;;;;5069303;28;20421;-58
2021/09/15 03:02:31;;;;;;;3.92;2.88;;;;;;;;;;5064646;28;20115;-59
2021/09/15 03:04:57;;;;;;;3.33;2.70;;;;;;;;;;5068792;28;20131;-59
2021/09/15 03:07:22;;;;;;;3.50;2.88;;;;;;;;;;5068809;28;20444;-58
2021/09/15 03:09:48;;;;;;;4.50;2.90;;;;;;;;;;5069185;28;20135;-58
2021/09/15 03:12:13;;;;;;;3.30;2.50;;;;;;;;;;5069191;28;20036;-58
2021/09/15 03:14:39;;;;;;;9.63;3.60;;;;;;;;;;5068317;28;20024;-58
2021/09/15 03:17:04;;;;;;;3.72;2.72;;;;;;;;;;5068917;28;20142;-58
2021/09/15 03:19:29;;;;;;;9.00;2.35;;;;;;;;;;5069250;28;20039;-58
2021/09/15 03:21:55;;;;;;;3.70;2.65;;;;;;;;;;5065731;28;20635;-58
2021/09/15 03:24:20;;;;;;;3.92;2.35;;;;;;;;;;5068131;28;20039;-59
2021/09/15 03:26:46;;;;;;;4.70;3.17;;;;;;;;;;5066428;28;20430;-58
2021/09/15 03:29:11;;;;;;;4.70;3.47;;;;;;;;;;5068426;28;20036;-58
2021/09/15 03:31:36;;;;;;;3.67;2.90;;;;;;;;;;5068476;28;20032;-58
2021/09/15 03:34:02;;;;;;;3.17;2.40;;;;;;;;;;5068829;28;20032;-59
2021/09/15 03:36:27;;;;;;;3.70;2.60;;;;;;;;;;5068674;28;20075;-59
2021/09/15 03:38:53;;;;;;;4.05;3.05;;;;;;;;;;5068226;28;20119;-58
2021/09/15 03:41:18;;;;;;;3.25;2.50;;;;;;;;;;5069477;28;20044;-59
2021/09/15 03:43:44;;;;;;;3.75;2.83;;;;;;;;;;5067592;28;20044;-59
2021/09/15 03:46:09;;;;;;;2.95;2.38;;;;;;;;;;5068316;28;20051;-59
2021/09/15 03:48:34;;;;;;;4.43;2.85;;;;;;;;;;5068253;28;20024;-58
2021/09/15 03:51:00;;;;;;;3.88;3.33;;;;;;;;;;5068584;28;20056;-58
2021/09/15 03:53:25;;;;;;;4.70;3.35;;;;;;;;;;5068653;28;20480;-59
2021/09/15 03:55:51;;;;;;;3.13;2.63;;;;;;;;;;5067891;28;20028;-58
2021/09/15 03:58:16;;;;;;;4.38;2.88;;;;;;;;;;5068968;28;20036;-59
2021/09/15 04:00:41;;;;;;;3.17;2.30;;;;;;;;;;5067848;28;20036;-58
2021/09/15 04:03:07;;;;;;;6.07;3.67;;;;;;;;;;5068802;28;20083;-59
2021/09/15 04:05:32;;;;;;;3.22;2.92;;;;;;;;;;5068304;28;20565;-58
2021/09/15 04:07:58;;;;;;;4.28;3.00;;;;;;;;;;5068292;28;20400;-58
2021/09/15 04:10:23;;;;;;;4.32;3.30;;;;;;;;;;5068511;28;20090;-58
2021/09/15 04:12:49;;;;;;;4.07;2.90;;;;;;;;;;5068246;28;20032;-60
2021/09/15 04:15:14;;;;;;;3.95;2.80;;;;;;;;;;5066548;28;20473;-60
2021/09/15 04:17:40;;;;;;;7.43;3.28;;;;;;;;;;5067498;28;20033;-60
2021/09/15 04:20:06;;;;;;;3.85;3.17;;;;;;;;;;5067695;28;20032;-58
2021/09/15 04:22:33;;;;;;;3.15;2.63;;;;;;;;;;5068111;28;20044;-58
2021/09/15 04:33:10;;;;;;;3.53;2.85;;;;;;;;;;5072181;28;20046;-59
2021/09/15 04:35:35;;;;;;;3.28;2.65;;;;;;;;;;5072014;28;20111;-58
2021/09/15 04:38:01;;;;;;;3.88;2.53;;;;;;;;;;5071562;28;20028;-59
2021/09/15 04:40:26;;;;;;;2.88;2.38;;;;;;;;;;5071009;28;20049;-58
2021/09/15 04:42:52;;;;;;;3.67;2.88;;;;;;;;;;5070950;28;20037;-58
2021/09/15 04:45:17;;;;;;;4.25;3.10;;;;;;;;;;5070822;28;20040;-59
2021/09/15 04:47:43;;;;;;;2.85;2.30;;;;;;;;;;5070755;28;20066;-59
2021/09/15 04:50:08;;;;;;;3.08;2.70;;;;;;;;;;5071583;28;20036;-58
2021/09/15 04:52:34;;;;;;;3.63;2.85;;;;;;;;;;5072334;28;20044;-58
2021/09/15 04:55:00;;;;;;;4.22;3.28;;;;;;;;;;5071678;28;20052;-58
2021/09/15 04:57:25;;;;;;;3.42;2.90;;;;;;;;;;5071136;28;20044;-59
2021/09/15 04:59:51;;;;;;;3.78;3.38;;;;;;;;;;5071546;28;20112;-59
2021/09/15 05:02:16;;;;;;;3.67;2.90;;;;;;;;;;5070063;28;20034;-58
2021/09/15 05:04:41;;;;;;;3.50;2.90;;;;;;;;;;5068378;28;20441;-59
2021/09/15 05:07:07;;;;;;;4.22;3.28;;;;;;;;;;5070978;28;20021;-59
2021/09/15 05:09:32;;;;;;;4.35;3.53;;;;;;;;;;5072280;28;20074;-58
2021/09/15 05:11:57;;;;;;;5.03;4.03;;;;;;;;;;5071757;28;20032;-58
2021/09/15 05:14:23;;;;;;;4.85;4.07;;;;;;;;;;5070179;28;20033;-58
2021/09/15 05:16:48;;;;;;;3.42;2.80;;;;;;;;;;5071130;28;20089;-58
2021/09/15 05:19:14;;;;;;;4.03;3.53;;;;;;;;;;5070103;28;20032;-59
2021/09/15 05:21:39;;;;;;;4.28;3.63;;;;;;;;;;5070464;28;20117;-59
2021/09/15 05:24:04;;;;;;;4.38;3.55;;;;;;;;;;5070708;28;20362;-58
2021/09/15 05:26:30;;;;;;;4.13;3.10;;;;;;;;;;5071366;28;20037;-59
2021/09/15 05:28:55;;;;;;;4.72;3.20;;;;;;;;;;5071101;28;20036;-59
2021/09/15 05:31:21;;;;;;;4.50;3.42;;;;;;;;;;5070024;28;20044;-59
2021/09/15 05:33:46;;;;;;;3.92;3.53;;;;;;;;;;5069998;28;20075;-60
2021/09/15 05:36:12;;;;;;;6.70;3.75;;;;;;;;;;5067298;28;20055;-59
2021/09/15 05:38:37;;;;;;;5.13;4.53;;;;;;;;;;5070248;28;20130;-59
2021/09/15 05:41:02;;;;;;;6.13;4.78;;;;;;;;;;5070447;28;20032;-59
2021/09/15 05:43:28;;;;;;;3.97;3.47;;;;;;;;;;5071009;28;20032;-59
2021/09/15 05:45:53;;;;;;;4.80;3.53;;;;;;;;;;5067608;28;20551;-59
2021/09/15 05:48:19;;;;;;;4.88;3.85;;;;;;;;;;5068818;28;20036;-59
2021/09/15 05:50:44;;;;;;;4.75;3.25;;;;;;;;;;5068014;28;20043;-59
2021/09/15 05:53:09;;;;;;;4.97;3.95;;;;;;;;;;5068032;28;20021;-59
2021/09/15 05:55:35;;;;;;;6.65;4.07;;;;;;;;;;5066489;28;20344;-59
2021/09/15 05:58:00;;;;;;;4.45;4.00;;;;;;;;;;5068815;28;20373;-59
2021/09/15 06:00:26;;;;;;;4.32;3.22;;;;;;;;;;5067382;28;20087;-60
2021/09/15 06:02:51;;;;;;;5.70;4.13;;;;;;;;;;5069196;28;20037;-59
2021/09/15 06:05:16;;;;;;;7.15;4.05;;;;;;;;;;5070290;28;20040;-59
2021/09/15 06:07:42;;;;;;;4.25;3.20;;;;;;;;;;5071436;28;20314;-59
2021/09/15 06:10:07;;;;;;;6.57;3.72;;;;;;;;;;5071183;28;20972;-59
2021/09/15 06:12:33;;;;;;;5.43;3.35;;;;;;;;;;5070391;28;20119;-59
2021/09/15 06:14:58;;;;;;;4.88;4.38;;;;;;;;;;5069649;28;20037;-59
2021/09/15 06:17:23;;;;;;;3.83;2.70;;;;;;;;;;5068720;28;20139;-59
2021/09/15 06:19:49;;;;;;;4.13;3.13;;;;;;;;;;5069848;28;20043;-60
2021/09/15 06:22:14;;;;;;;8.20;3.42;;;;;;;;;;5070179;28;20032;-60
2021/09/15 06:24:40;;;;;;;7.78;4.63;;;;;;;;;;5070875;28;20032;-61
2021/09/15 06:27:05;;;;;;;8.10;4.53;;;;;;;;;;5070605;28;20046;-60
2021/09/15 06:29:30;;;;;;;8.20;4.18;;;;;;;;;;5068706;28;20458;-61
2021/09/15 06:31:56;;;;;;;6.18;4.57;;;;;;;;;;5068816;28;20492;-62
2021/09/15 06:34:21;;;;;;;7.13;5.32;;;;;;;;;;5069979;28;20034;-61
2021/09/15 06:36:47;;;;;;;6.32;4.88;;;;;;;;;;5068114;28;20446;-62
2021/09/15 06:39:12;;;;;;;4.53;3.85;;;;;;;;;;5063866;28;20093;-62
2021/09/15 06:41:38;;;;;;;5.72;4.40;;;;;;;;;;5068578;28;20029;-63
2021/09/15 06:44:03;;;;;;;4.20;3.80;;;;;;;;;;5067906;28;20480;-64
2021/09/15 06:46:29;;;;;;;4.70;4.18;;;;;;;;;;5067310;28;20024;-63
2021/09/15 06:48:54;;;;;;;6.53;4.40;;;;;;;;;;5068962;28;20089;-65
2021/09/15 06:51:20;;;;;;;6.00;4.25;;;;;;;;;;5059920;28;20028;-64
2021/09/15 06:53:47;;;;;;;4.63;3.53;;;;;;;;;;5069053;28;20024;-64
2021/09/15 06:56:12;;;;;;;4.82;4.32;;;;;;;;;;5065852;28;20114;-64
2021/09/15 06:58:38;;;;;;;4.65;3.53;;;;;;;;;;5067523;28;20114;-63
2021/09/15 07:01:03;;;;;;;5.55;4.70;;;;;;;;;;5067921;28;20409;-63
2021/09/15 07:03:28;;;;;;;6.40;5.10;;;;;;;;;;5068608;28;20035;-63
2021/09/15 07:05:54;;;;;;;3.97;3.45;;;;;;;;;;5064480;28;20038;-63
2021/09/15 07:08:19;;;;;;;3.97;3.33;;;;;;;;;;5063749;28;20029;-63
2021/09/15 07:10:44;;;;;;;5.30;4.45;;;;;;;;;;5067861;28;20033;-63
2021/09/15 07:13:10;;;;;;;7.97;4.55;;;;;;;;;;5064187;28;20048;-63
2021/09/15 07:15:35;;;;;;;4.60;3.88;;;;;;;;;;5067533;28;20028;-62
2021/09/15 07:18:01;;;;;;;4.93;4.05;;;;;;;;;;5067424;28;20032;-62
2021/09/15 07:20:26;;;;;;;5.85;3.83;;;;;;;;;;5069694;28;20047;-62
2021/09/15 07:22:52;;;;;;;4.45;3.47;;;;;;;;;;5068708;28;20117;-63
2021/09/15 07:25:18;;;;;;;11.07;6.13;;;;;;;;;;5069551;28;20478;-62
2021/09/15 07:27:43;;;;;;;8.38;4.15;;;;;;;;;;5068151;28;20035;-63
2021/09/15 07:30:10;;;;;;;7.22;4.43;;;;;;;;;;5066437;28;20037;-63
2021/09/15 07:32:35;;;;;;;4.45;3.67;;;;;;;;;;5067946;28;20032;-63
2021/09/15 07:35:02;;;;;;;4.85;4.00;;;;;;;;;;5066883;28;20955;-62
2021/09/15 07:37:27;;;;;;;7.35;3.90;;;;;;;;;;5068128;28;20044;-63
2021/09/15 07:39:53;;;;;;;6.07;4.65;;;;;;;;;;5067933;28;20476;-62
2021/09/15 07:42:19;;;;;;;6.07;4.43;;;;;;;;;;5067012;28;20047;-62
2021/09/15 07:44:44;;;;;;;5.90;4.18;;;;;;;;;;5067988;28;20075;-63
2021/09/15 07:47:15;;;;;;;6.32;4.00;;;;;;;;;;5068313;28;20028;-63
2021/09/15 07:49:45;;;;;;;8.13;3.85;;;;;;;;;;5068870;28;20541;-63
2021/09/15 07:52:11;;;;;;;5.90;4.18;;;;;;;;;;5068630;28;20128;-63
2021/09/15 07:54:36;;;;;;;4.38;3.83;;;;;;;;;;5068733;28;20068;-63
2021/09/15 07:57:01;;;;;;;5.07;4.05;;;;;;;;;;5067953;28;20068;-63
2021/09/15 07:59:27;;;;;;;4.95;3.88;;;;;;;;;;5067762;28;20032;-62
2021/09/15 08:01:52;;;;;;;5.25;4.00;;;;;;;;;;5065286;28;20035;-62
2021/09/15 08:04:18;;;;;;;5.45;3.70;;;;;;;;;;5066423;28;20331;-62
2021/09/15 08:06:43;;;;;;;4.45;3.60;;;;;;;;;;5067366;28;20111;-63
2021/09/15 08:09:08;;;;;;;9.32;4.55;;;;;;;;;;5068307;28;20099;-63
2021/09/15 08:11:34;;;;;;;4.88;4.13;;;;;;;;;;5068805;28;20070;-62
2021/09/15 08:14:00;;;;;;;3.92;3.33;;;;;;;;;;5065075;28;20036;-62
2021/09/15 08:16:25;;;;;;;5.30;4.43;;;;;;;;;;5068478;28;20043;-62
2021/09/15 08:18:51;;;;;;;5.47;4.35;;;;;;;;;;5068699;28;20039;-62
2021/09/15 08:21:16;;;;;;;5.47;4.10;;;;;;;;;;5065062;28;20041;-63
2021/09/15 08:23:42;;;;;;;4.15;3.65;;;;;;;;;;5066612;28;20111;-62
2021/09/15 08:26:07;;;;;;;7.93;4.75;;;;;;;;;;5068108;28;20445;-62
2021/09/15 08:28:36;;;;;;;5.05;3.63;;;;;;;;;;5067335;28;20047;-62
2021/09/15 08:31:03;;;;;;;5.55;4.30;;;;;;;;;;5067377;28;20600;-62
2021/09/15 08:33:28;;;;;;;7.57;4.45;;;;;;;;;;5068349;28;20036;-62
2021/09/15 08:35:54;;;;;;;5.10;4.10;;;;;;;;;;5067931;28;20450;-62
2021/09/15 08:38:19;;;;;;;10.07;6.03;;;;;;;;;;5067930;28;20044;-63
2021/09/15 08:40:45;;;;;;;4.60;3.88;;;;;;;;;;5068438;28;20037;-62
2021/09/15 08:43:10;;;;;;;5.72;4.40;;;;;;;;;;5067736;28;20044;-63
2021/09/15 08:45:35;;;;;;;4.53;3.67;;;;;;;;;;5066551;28;20039;-63
2021/09/15 08:48:02;;;;;;;5.82;4.25;;;;;;;;;;5065206;28;20028;-63
2021/09/15 08:50:28;;;;;;;4.20;3.30;;;;;;;;;;5067759;28;20412;-63
2021/09/15 08:52:54;;;;;;;4.72;3.72;;;;;;;;;;5068310;28;20044;-62
2021/09/15 08:55:19;;;;;;;7.80;5.45;;;;;;;;;;5066211;28;20043;-64
2021/09/15 08:57:45;;;;;;;4.72;3.58;;;;;;;;;;5067734;28;20040;-63
2021/09/15 09:00:11;;;;;;;5.22;3.95;;;;;;;;;;5067653;28;20716;-63
2021/09/15 09:02:43;;;;;;;5.38;3.75;;;;;;;;;;5066308;28;20078;-63
2021/09/15 09:05:09;;;;;;;5.28;4.15;;;;;;;;;;5066821;28;20041;-63
2021/09/15 09:07:34;;;;;;;6.30;4.35;;;;;;;;;;5067133;28;20366;-63
2021/09/15 09:10:07;;;;;;;4.90;4.40;;;;;;;;;;5068487;28;20363;-62
2021/09/15 09:12:33;;;;;;;5.68;5.00;;;;;;;;;;5061774;28;20435;-63
2021/09/15 09:15:16;;;;;;;5.00;3.95;;;;;;;;;;5066474;28;20112;-62
2021/09/15 09:17:41;;;;;;;4.65;3.63;;;;;;;;;;5066240;28;20071;-62
2021/09/15 09:20:23;;;;;;;7.28;4.22;;;;;;;;;;5062961;28;20147;-62
2021/09/15 09:23:07;;;;;;;4.90;4.40;;;;;;;;;;5068432;28;20052;-63
2021/09/15 09:25:44;;;;;;;4.65;4.18;;;;;;;;;;5069346;28;20600;-62
2021/09/15 09:28:22;;;;;;;4.60;4.10;;;;;;;;;;5071365;28;20051;-63
2021/09/15 09:30:50;;;;;;;4.95;4.20;;;;;;;;;;5070734;28;20430;-62
2021/09/15 09:33:15;;;;;;;5.53;4.50;;;;;;;;;;5062591;28;20052;-62
2021/09/15 09:35:43;;;;;;;4.32;3.63;;;;;;;;;;5063320;28;20036;-62
2021/09/15 09:38:20;;;;;;;4.93;4.43;;;;;;;;;;5065768;28;20764;-62
2021/09/15 09:41:12;;;;;;;3.58;3.22;;;;;;;;;;5066335;28;20052;-61
2021/09/15 09:43:47;;;;;;;4.30;3.70;;;;;;;;;;5064772;28;20127;-61
2021/09/15 09:46:21;;;;;;;6.28;3.90;;;;;;;;;;5067842;28;20051;-62
2021/09/15 09:48:54;;;;;;;6.25;4.13;;;;;;;;;;5063408;28;20414;-61
2021/09/15 09:51:32;;;;;;;3.88;3.17;;;;;;;;;;5067687;28;20039;-62
2021/09/15 09:54:12;;;;;;;5.13;4.45;;;;;;;;;;5067967;28;20468;-63
2021/09/15 09:56:39;;;;;;;;;;;;;;;;;;5063087;28;20056;-62
2021/09/15 09:59:05;;;;;;;3.72;3.08;;;;;;;;;;5066488;28;20172;-62
2021/09/15 10:01:45;;;;;;;4.18;3.17;;;;;;;;;;5067162;28;20086;-62
2021/09/15 10:04:11;;;;;;;3.67;3.00;;;;;;;;;;5067584;28;20210;-62
2021/09/15 10:06:38;;;;;;;4.60;3.40;;;;;;;;;;5067529;28;20068;-62
2021/09/15 10:09:05;;;;;;;4.25;3.80;;;;;;;;;;5067038;28;20052;-61
2021/09/15 10:11:30;;;;;;;4.13;3.75;;;;;;;;;;5067280;28;20040;-62
2021/09/15 10:13:57;;;;;;;5.50;4.10;;;;;;;;;;5065868;28;20032;-63
2021/09/15 10:16:23;;;;;;;3.90;3.13;;;;;;;;;;5066861;28;20477;-63
2021/09/15 10:19:00;;;;;;;3.75;3.38;;;;;;;;;;5063189;28;20075;-62
2021/09/15 10:21:28;;;;;;;3.45;3.13;;;;;;;;;;5044125;28;20029;-61
2021/09/15 10:23:53;;;;;;;4.15;3.63;;;;;;;;;;5063345;28;20096;-63
2021/09/15 10:26:39;;;;;;;3.55;3.20;;;;;;;;;;5066551;28;20044;-63
2021/09/15 10:29:13;;;;;;;4.97;3.85;;;;;;;;;;5063834;28;20545;-63
2021/09/15 10:32:11;;;;;;;4.22;3.55;;;;;;;;;;5065798;28;20169;-63
2021/09/15 10:34:37;;;;;;;3.55;2.90;;;;;;;;;;5060113;28;20049;-61
2021/09/15 10:37:23;;;;;;;7.95;3.88;;;;;;;;;;5065183;28;20040;-63
2021/09/15 10:39:57;;;;;;;3.78;3.35;;;;;;;;;;5065894;28;20151;-63
2021/09/15 10:42:35;;;;;;;4.60;3.70;;;;;;;;;;5062346;28;20037;-62
2021/09/15 10:45:09;;;;;;;3.85;3.15;;;;;;;;;;5066931;28;20370;-63
2021/09/15 10:47:43;;;;;;;3.50;3.20;;;;;;;;;;5063540;28;20067;-63
2021/09/15 10:50:12;;;;;;;3.40;3.10;;;;;;;;;;5061934;28;20041;-63
2021/09/15 10:52:43;;;;;;;4.35;3.47;;;;;;;;;;5064456;28;20725;-64
2021/09/15 10:55:20;;;;;;;3.10;2.70;;;;;;;;;;5062679;28;20040;-64
2021/09/15 10:57:47;;;;;;;4.18;2.97;;;;;;;;;;5065857;28;20112;-64
2021/09/15 11:00:26;;;;;;;3.22;2.85;;;;;;;;;;5065037;28;20443;-64
2021/09/15 11:02:52;;;;;;;3.90;3.45;;;;;;;;;;5064851;28;20070;-64
2021/09/15 11:05:29;;;;;;;4.03;3.33;;;;;;;;;;5065281;28;20029;-63
2021/09/15 11:07:54;;;;;;;4.57;3.75;;;;;;;;;;5065976;28;20036;-63
2021/09/15 11:10:38;;;;;;;2.88;2.50;;;;;;;;;;5063780;28;20560;-62
2021/09/15 11:13:04;;;;;;;3.53;2.97;;;;;;;;;;5059986;28;20029;-64
2021/09/15 11:15:36;;;;;;;3.33;3.03;;;;;;;;;;5065337;28;20032;-63
2021/09/15 11:18:02;;;;;;;3.90;3.10;;;;;;;;;;5061757;28;20053;-64
2021/09/15 11:20:30;;;;;;;4.75;3.45;;;;;;;;;;5064796;28;20492;-62
2021/09/15 11:23:01;;;;;;;3.20;2.85;;;;;;;;;;5064343;28;20063;-62
2021/09/15 11:25:26;;;;;;;;;;;;;;;;;;5063651;28;20040;-63
2021/09/15 11:28:07;;;;;;;6.65;2.72;;;;;;;;;;5066395;28;19916;-62
2021/09/15 11:30:33;;;;;;;4.65;3.47;;;;;;;;;;5065679;28;20040;-62
2021/09/15 11:32:58;;;;;;;3.60;2.85;;;;;;;;;;5064178;28;20024;-62
2021/09/15 11:35:24;;;;;;;3.30;2.50;;;;;;;;;;5063585;28;20028;-63
2021/09/15 11:37:50;;;;;;;3.67;3.15;;;;;;;;;;5063395;28;20471;-62
2021/09/15 11:40:16;;;;;;;3.55;2.95;;;;;;;;;;5064656;28;20029;-62
2021/09/15 11:42:41;;;;;;;4.32;3.10;;;;;;;;;;5067021;28;20020;-63
2021/09/15 11:45:15;;;;;;;3.58;2.60;;;;;;;;;;5066727;28;20474;-62
2021/09/15 11:47:46;;;;;;;4.03;2.67;;;;;;;;;;5067601;28;20033;-62
2021/09/15 11:50:18;;;;;;;3.97;3.25;;;;;;;;;;5069029;28;20024;-62
2021/09/15 11:52:48;;;;;;;2.78;2.28;;;;;;;;;;5068836;28;20481;-62
2021/09/15 11:55:15;;;;;;;3.35;2.47;;;;;;;;;;5068452;28;20520;-64
2021/09/15 11:57:51;;;;;;;3.25;2.65;;;;;;;;;;5069312;28;20043;-63
2021/09/15 12:00:17;;;;;;;4.55;3.13;;;;;;;;;;5069176;28;20499;-61
2021/09/15 12:02:45;;;;;;;3.80;3.10;;;;;;;;;;5067667;28;20032;-61
2021/09/15 12:05:11;;;;;;;3.83;2.88;;;;;;;;;;5066592;28;20043;-61
2021/09/15 12:07:40;;;;;;;4.47;3.88;;;;;;;;;;5069144;28;20383;-61
2021/09/15 12:10:07;;;;;;;3.42;3.13;;;;;;;;;;5064037;28;20036;-61
2021/09/15 12:12:34;;;;;;;3.33;3.03;;;;;;;;;;5066951;28;20039;-64
2021/09/15 12:15:00;;;;;;;5.15;3.35;;;;;;;;;;5067887;28;20029;-61
2021/09/15 12:17:26;;;;;;;3.88;3.35;;;;;;;;;;5067249;28;20032;-62
2021/09/15 12:19:55;;;;;;;3.38;2.92;;;;;;;;;;5066508;28;20689;-62
2021/09/15 12:22:23;;;;;;;3.80;3.27;;;;;;;;;;5063875;28;20075;-64
2021/09/15 12:25:11;;;;;;;3.30;3.00;;;;;;;;;;5064566;28;20064;-62
2021/09/15 12:27:38;;;;;;;3.15;2.53;;;;;;;;;;5065220;28;20032;-62
2021/09/15 12:30:07;;;;;;;3.17;2.67;;;;;;;;;;5064439;28;20028;-60
2021/09/15 12:32:39;;;;;;;5.28;3.40;;;;;;;;;;5067480;28;20163;-61
2021/09/15 12:35:06;;;;;;;3.45;3.03;;;;;;;;;;5067953;28;20426;-61
2021/09/15 12:37:39;;;;;;;3.55;2.80;;;;;;;;;;5066303;28;20040;-64
2021/09/15 12:40:06;;;;;;;2.97;2.50;;;;;;;;;;5068417;28;20044;-61
2021/09/15 12:42:34;;;;;;;3.38;2.67;;;;;;;;;;5068087;28;20048;-62
2021/09/15 12:45:05;;;;;;;4.13;2.90;;;;;;;;;;5068828;28;20089;-64
2021/09/15 12:47:38;;;;;;;5.97;3.28;;;;;;;;;;5065588;28;20024;-63
2021/09/15 12:50:28;;;;;;;3.30;3.00;;;;;;;;;;5071384;28;20090;-64
2021/09/15 12:53:14;;;;;;;3.17;2.55;;;;;;;;;;5072396;28;20020;-64
2021/09/15 12:55:43;;;;;;;8.43;2.40;;;;;;;;;;5070735;28;20036;-64
2021/09/15 12:58:09;;;;;;;4.25;2.65;;;;;;;;;;5072191;28;20055;-63
2021/09/15 13:00:46;;;;;;;3.00;2.65;;;;;;;;;;5071619;28;20043;-64
2021/09/15 13:03:12;;;;;;;3.10;2.25;;;;;;;;;;5071609;28;20517;-65
2021/09/15 13:05:42;;;;;;;2.70;2.25;;;;;;;;;;5069955;28;20093;-63
2021/09/15 13:08:22;;;;;;;7.15;2.47;;;;;;;;;;5072033;28;20031;-63
2021/09/15 13:10:48;;;;;;;4.82;2.35;;;;;;;;;;5069730;28;20064;-63
2021/09/15 13:13:19;;;;;;;2.20;1.60;;;;;;;;;;5067617;28;20041;-63
2021/09/15 13:15:45;;;;;;;2.53;1.95;;;;;;;;;;5065918;28;20048;-63
2021/09/15 13:18:11;;;;;;;3.25;2.60;;;;;;;;;;5070842;28;20031;-63
2021/09/15 13:20:36;;;;;;;2.85;2.03;;;;;;;;;;5071771;28;20024;-63
2021/09/15 13:23:02;;;;;;;2.20;1.65;;;;;;;;;;5071669;28;20052;-63
2021/09/15 13:25:27;;;;;;;2.40;1.80;;;;;;;;;;5068801;28;20025;-63
2021/09/15 13:27:53;;;;;;;4.38;1.70;;;;;;;;;;5071805;28;20476;-63
2021/09/15 13:30:19;;;;;;;4.75;2.42;;;;;;;;;;5071186;28;20043;-63
2021/09/15 13:32:44;;;;;;;2.45;1.75;;;;;;;;;;5069916;28;20036;-63
2021/09/15 13:35:10;;;;;;;2.33;1.77;;;;;;;;;;5070591;28;20106;-63
2021/09/15 13:37:36;;;;;;;2.58;1.98;;;;;;;;;;5067600;28;20067;-63
2021/09/15 13:40:02;;;;;;;2.17;1.52;;;;;;;;;;5065250;28;20025;-63
2021/09/15 13:42:28;;;;;;;1.60;1.23;;;;;;;;;;5069812;28;20108;-63
2021/09/15 13:44:54;;;;;;;2.65;1.90;;;;;;;;;;5070359;28;20103;-63
2021/09/15 13:47:20;;;;;;;2.85;2.05;;;;;;;;;;5071630;28;20032;-62
2021/09/15 13:49:45;;;;;;;2.33;1.95;;;;;;;;;;5069462;28;20040;-60
2021/09/15 13:52:13;;;;;;;10.35;2.00;;;;;;;;;;5069640;28;20059;-60
2021/09/15 13:54:43;;;;;;;2.30;1.63;;;;;;;;;;5068858;28;20032;-60
2021/09/15 13:57:09;;;;;;;;;;;;;;;;;;5071385;28;20028;-60
2021/09/15 13:59:35;;;;;;;2.40;1.83;;;;;;;;;;5067563;28;20265;-59
2021/09/15 14:02:01;;;;;;;2.47;1.67;;;;;;;;;;5065330;28;20134;-58
2021/09/15 14:04:26;;;;;;;1.73;1.30;;;;;;;;;;5069638;28;20047;-59
2021/09/15 14:06:52;;;;;;;2.05;1.52;;;;;;;;;;5071159;28;20162;-61
2021/09/15 14:09:17;;;;;;;2.28;1.73;;;;;;;;;;5069467;28;20047;-60
2021/09/15 14:11:43;;;;;;;2.88;1.83;;;;;;;;;;5070298;28;20111;-59
2021/09/15 14:14:08;;;;;;;2.08;1.60;;;;;;;;;;5069051;28;20331;-59
2021/09/15 14:16:40;;;;;;;4.28;2.08;;;;;;;;;;5069635;28;20040;-59
2021/09/15 14:19:06;;;;;;;2.25;1.58;;;;;;;;;;5061775;28;20473;-59
2021/09/15 14:21:32;;;;;;;1.90;1.35;;;;;;;;;;5064393;28;20028;-60
2021/09/15 14:23:58;;;;;;;1.75;1.20;;;;;;;;;;5069888;28;20439;-59
2021/09/15 14:26:23;;;;;;;2.58;1.90;;;;;;;;;;5067578;28;20119;-59
2021/09/15 14:28:49;;;;;;;3.10;1.98;;;;;;;;;;5069009;28;20021;-59
2021/09/15 14:31:14;;;;;;;2.25;1.58;;;;;;;;;;5070179;28;20032;-59
2021/09/15 14:33:40;;;;;;;3.80;2.50;;;;;;;;;;5062186;28;20064;-59
2021/09/15 14:36:06;;;;;;;1.65;1.23;;;;;;;;;;5068129;28;20476;-60
2021/09/15 14:38:31;;;;;;;2.40;1.77;;;;;;;;;;5070215;28;20021;-59
2021/09/15 14:40:57;;;;;;;2.17;1.58;;;;;;;;;;5070771;28;20024;-59
2021/09/15 14:43:22;;;;;;;2.17;1.45;;;;;;;;;;5067015;28;20062;-59
2021/09/15 14:45:48;;;;;;;4.22;1.88;;;;;;;;;;5068982;28;20059;-59
2021/09/15 14:48:14;;;;;;;2.30;1.55;;;;;;;;;;5069973;28;20596;-59
2021/09/15 14:50:39;;;;;;;2.30;1.58;;;;;;;;;;5070109;28;20028;-59
2021/09/15 14:53:05;;;;;;;3.35;2.08;;;;;;;;;;5068228;28;20097;-59